Terminal Aerodrome Forecast
Issued by NWS Flagstaff, AZ

Home | Current Version | Previous Version | Text Only | Print | Product List | Glossary On
Versions: 1 2 3 4 5 6 7 8 9 10 11 12 13 14 15 16 17 18 19 20 21 22
000
FTUS45 KFGZ 310500
TAFINW
TAF
KINW 310533Z 3106/0106 VRB05KT P6SM VCSH SCT030 OVC060
     FM311000 VRB05KT P6SM VCFG BKN005
      TEMPO 3111/3115 1SM -RA BR OVC005
     FM311500 VRB05KT P6SM BKN030
     FM010100 VRB05KT P6SM FEW030=

USA.gov is the U.S. government's official web portal to all federal, state and local government web resources and services.